SWA2848 KLAX-PHNL
Flight info
| Callsign | SWA2848 |
|---|---|
| Flight time | 5h 46m |
| Altitude | 40000 |
| Route | SUMMR2 DINTY DUETS 3335N12855W DADIE R576 DUSAC/N0457F340 R576 DENNS MAGGI3 |
| Aircraft | B738/M-SDE2E3FGHIRWXY/LB1 |
Departure
| Time | 2026-04-22 13:12 |
|---|---|
| Airport | Los Angeles International Airport (KLAX) |
Arrival
| Time | 2026-04-22 18:58 |
|---|---|
| Airport | Daniel K. Inouye International Airport (PHNL) |
| Time | Latitude | Longitude | Altitude | Speed | Heading |
|---|---|---|---|---|---|
| 2026-04-22 12:45 | 33.94725 | -118.40196 | 124 ft | 0 kts | 82° |
| 2026-04-22 13:04 | 33.94725 | -118.40197 | 115 ft | 1 kts | 82° |
| 2026-04-22 13:04 | 33.94723 | -118.40214 | 123 ft | 2 kts | 82° |
| 2026-04-22 13:05 | 33.94720 | -118.40234 | 122 ft | 3 kts | 65° |
| 2026-04-22 13:05 | 33.94710 | -118.40249 | 120 ft | 3 kts | 16° |
| 2026-04-22 13:05 | 33.94692 | -118.40252 | 122 ft | 2 kts | 354° |
| 2026-04-22 13:05 | 33.94687 | -118.40251 | 120 ft | 1 kts | 353° |
| 2026-04-22 13:07 | 33.94696 | -118.40252 | 124 ft | 3 kts | 353° |
| 2026-04-22 13:08 | 33.94723 | -118.40256 | 123 ft | 4 kts | 352° |
| 2026-04-22 13:08 | 33.94757 | -118.40261 | 122 ft | 5 kts | 352° |
| 2026-04-22 13:08 | 33.94795 | -118.40267 | 122 ft | 6 kts | 349° |
| 2026-04-22 13:08 | 33.94835 | -118.40286 | 121 ft | 7 kts | 338° |
| 2026-04-22 13:09 | 33.94883 | -118.40281 | 123 ft | 7 kts | 31° |
| 2026-04-22 13:09 | 33.94903 | -118.40228 | 124 ft | 8 kts | 80° |
| 2026-04-22 13:09 | 33.94924 | -118.40183 | 124 ft | 0 kts | 28° |
| 2026-04-22 13:10 | 33.94934 | -118.40178 | 124 ft | 5 kts | 20° |
| 2026-04-22 13:10 | 33.95000 | -118.40184 | 123 ft | 12 kts | 330° |
| 2026-04-22 13:10 | 33.95012 | -118.40232 | 124 ft | 5 kts | 268° |
| 2026-04-22 13:11 | 33.94987 | -118.40488 | 123 ft | 64 kts | 262° |
| 2026-04-22 13:11 | 33.94905 | -118.41278 | 122 ft | 124 kts | 262° |
| 2026-04-22 13:11 | 33.94777 | -118.42514 | 127 ft | 173 kts | 261° |
| 2026-04-22 13:11 | 33.94586 | -118.44042 | 485 ft | 191 kts | 264° |
| 2026-04-22 13:12 | 33.94417 | -118.45674 | 1090 ft | 205 kts | 264° |
| 2026-04-22 13:12 | 33.94228 | -118.47551 | 1186 ft | 234 kts | 264° |
| 2026-04-22 13:12 | 33.93999 | -118.49506 | 1764 ft | 244 kts | 261° |
| 2026-04-22 13:12 | 33.93725 | -118.51527 | 2368 ft | 248 kts | 262° |
| 2026-04-22 13:13 | 33.93452 | -118.53694 | 2192 ft | 275 kts | 262° |
| 2026-04-22 13:13 | 33.93179 | -118.55990 | 2172 ft | 270 kts | 263° |
| 2026-04-22 13:13 | 33.92935 | -118.58136 | 3379 ft | 244 kts | 263° |
| 2026-04-22 13:13 | 33.92717 | -118.60180 | 3878 ft | 251 kts | 264° |
| 2026-04-22 13:14 | 33.92530 | -118.62200 | 4865 ft | 236 kts | 265° |
| 2026-04-22 13:14 | 33.92435 | -118.64179 | 5408 ft | 243 kts | 267° |
| 2026-04-22 13:14 | 33.92296 | -118.66290 | 5595 ft | 257 kts | 265° |
| 2026-04-22 13:14 | 33.92117 | -118.68504 | 5930 ft | 271 kts | 265° |
| 2026-04-22 13:15 | 33.91992 | -118.70725 | 6872 ft | 258 kts | 274° |
| 2026-04-22 13:15 | 33.92154 | -118.72847 | 7644 ft | 254 kts | 275° |
| 2026-04-22 13:15 | 33.92200 | -118.74996 | 8224 ft | 258 kts | 270° |
| 2026-04-22 13:15 | 33.92123 | -118.77151 | 8846 ft | 259 kts | 267° |
| 2026-04-22 13:16 | 33.91987 | -118.79314 | 9482 ft | 259 kts | 266° |
| 2026-04-22 13:16 | 33.91829 | -118.81479 | 10112 ft | 261 kts | 265° |
| 2026-04-22 13:16 | 33.91675 | -118.83703 | 10367 ft | 275 kts | 269° |
| 2026-04-22 13:16 | 33.91721 | -118.86089 | 10505 ft | 293 kts | 272° |
| 2026-04-22 13:17 | 33.91826 | -118.88619 | 10645 ft | 311 kts | 272° |
| 2026-04-22 13:17 | 33.91926 | -118.91292 | 10778 ft | 328 kts | 272° |
| 2026-04-22 13:17 | 33.92016 | -118.94046 | 11060 ft | 338 kts | 272° |
| 2026-04-22 13:17 | 33.92101 | -118.96889 | 11564 ft | 341 kts | 272° |
| 2026-04-22 13:18 | 33.92337 | -118.99739 | 12141 ft | 343 kts | 281° |
| 2026-04-22 13:18 | 33.93008 | -119.02538 | 12740 ft | 345 kts | 288° |
| 2026-04-22 13:18 | 33.93987 | -119.05151 | 13254 ft | 350 kts | 297° |
| 2026-04-22 13:18 | 33.95282 | -119.07655 | 13794 ft | 353 kts | 299° |
| 2026-04-22 13:19 | 33.96605 | -119.10157 | 14270 ft | 356 kts | 298° |
| 2026-04-22 13:19 | 33.97926 | -119.12684 | 14725 ft | 358 kts | 298° |
| 2026-04-22 13:19 | 33.99248 | -119.15237 | 15204 ft | 359 kts | 298° |
| 2026-04-22 13:19 | 34.00706 | -119.17707 | 15667 ft | 365 kts | 306° |
| 2026-04-22 13:20 | 34.02490 | -119.19912 | 16154 ft | 371 kts | 314° |
| 2026-04-22 13:20 | 34.04572 | -119.21810 | 16645 ft | 376 kts | 319° |
| 2026-04-22 13:20 | 34.06719 | -119.23633 | 17083 ft | 379 kts | 319° |
| 2026-04-22 13:20 | 34.08883 | -119.25464 | 17497 ft | 381 kts | 319° |
| 2026-04-22 13:21 | 34.11061 | -119.27313 | 17945 ft | 383 kts | 318° |
| 2026-04-22 13:21 | 34.13244 | -119.29176 | 18369 ft | 386 kts | 318° |
| 2026-04-22 13:21 | 34.15440 | -119.31059 | 18729 ft | 388 kts | 318° |
| 2026-04-22 13:21 | 34.17643 | -119.32954 | 19112 ft | 390 kts | 318° |
| 2026-04-22 13:22 | 34.19856 | -119.34860 | 19496 ft | 391 kts | 317° |
| 2026-04-22 13:22 | 34.22054 | -119.36757 | 19876 ft | 393 kts | 317° |
| 2026-04-22 13:22 | 34.24283 | -119.38681 | 20268 ft | 395 kts | 317° |
| 2026-04-22 13:22 | 34.26522 | -119.40616 | 20630 ft | 397 kts | 317° |
| 2026-04-22 13:23 | 34.28775 | -119.42564 | 20974 ft | 399 kts | 317° |
| 2026-04-22 13:23 | 34.31038 | -119.44522 | 21322 ft | 401 kts | 317° |
| 2026-04-22 13:23 | 34.33315 | -119.46492 | 21665 ft | 403 kts | 317° |
| 2026-04-22 13:23 | 34.35604 | -119.48475 | 22000 ft | 405 kts | 317° |
| 2026-04-22 13:24 | 34.37819 | -119.50554 | 22299 ft | 400 kts | 307° |
| 2026-04-22 13:24 | 34.39401 | -119.53245 | 22605 ft | 388 kts | 290° |
| 2026-04-22 13:24 | 34.40337 | -119.56277 | 22996 ft | 382 kts | 281° |
| 2026-04-22 13:24 | 34.40716 | -119.59446 | 23278 ft | 381 kts | 268° |
| 2026-04-22 13:25 | 34.40579 | -119.62649 | 23584 ft | 382 kts | 264° |
| 2026-04-22 13:25 | 34.40343 | -119.65858 | 23864 ft | 383 kts | 264° |
| 2026-04-22 13:25 | 34.40089 | -119.69036 | 24119 ft | 385 kts | 264° |
| 2026-04-22 13:25 | 34.39831 | -119.72273 | 24394 ft | 386 kts | 264° |
| 2026-04-22 13:26 | 34.39581 | -119.75518 | 24674 ft | 387 kts | 264° |
| 2026-04-22 13:26 | 34.39338 | -119.78763 | 24930 ft | 388 kts | 264° |
| 2026-04-22 13:26 | 34.39100 | -119.82020 | 25181 ft | 389 kts | 264° |
| 2026-04-22 13:26 | 34.38865 | -119.85289 | 25443 ft | 390 kts | 264° |
| 2026-04-22 13:27 | 34.38629 | -119.88567 | 25690 ft | 391 kts | 264° |
| 2026-04-22 13:27 | 34.38394 | -119.91856 | 25923 ft | 393 kts | 264° |
| 2026-04-22 13:27 | 34.38157 | -119.95156 | 26163 ft | 394 kts | 264° |
| 2026-04-22 13:27 | 34.37918 | -119.98461 | 26407 ft | 395 kts | 264° |
| 2026-04-22 13:28 | 34.37679 | -120.01772 | 26656 ft | 396 kts | 264° |
| 2026-04-22 13:28 | 34.37437 | -120.05093 | 26884 ft | 397 kts | 264° |
| 2026-04-22 13:28 | 34.37194 | -120.08426 | 27111 ft | 398 kts | 264° |
| 2026-04-22 13:28 | 34.36949 | -120.11768 | 27320 ft | 399 kts | 264° |
| 2026-04-22 13:29 | 34.36702 | -120.15129 | 27506 ft | 401 kts | 264° |
| 2026-04-22 13:29 | 34.36454 | -120.18490 | 27758 ft | 401 kts | 264° |
| 2026-04-22 13:29 | 34.36205 | -120.21849 | 28101 ft | 399 kts | 264° |
| 2026-04-22 13:29 | 34.35957 | -120.25184 | 28466 ft | 397 kts | 264° |
| 2026-04-22 13:30 | 34.35710 | -120.28497 | 28786 ft | 395 kts | 264° |
| 2026-04-22 13:30 | 34.35465 | -120.31767 | 29062 ft | 395 kts | 264° |
| 2026-04-22 13:30 | 34.35217 | -120.35073 | 29358 ft | 394 kts | 264° |
| 2026-04-22 13:30 | 34.34968 | -120.38365 | 29681 ft | 392 kts | 264° |
| 2026-04-22 13:31 | 34.34719 | -120.41661 | 29963 ft | 392 kts | 264° |
| 2026-04-22 13:31 | 34.34342 | -120.44926 | 30143 ft | 393 kts | 258° |
| 2026-04-22 13:31 | 34.33629 | -120.48124 | 30379 ft | 394 kts | 253° |
| 2026-04-22 13:31 | 34.32595 | -120.51191 | 30637 ft | 394 kts | 247° |
| 2026-04-22 13:32 | 34.31407 | -120.54166 | 30899 ft | 393 kts | 247° |
| 2026-04-22 13:32 | 34.30216 | -120.57142 | 31105 ft | 393 kts | 247° |
| 2026-04-22 13:32 | 34.29028 | -120.60115 | 31299 ft | 392 kts | 247° |
| 2026-04-22 13:32 | 34.27845 | -120.63081 | 31531 ft | 391 kts | 247° |
| 2026-04-22 13:33 | 34.26664 | -120.66049 | 31769 ft | 390 kts | 247° |
| 2026-04-22 13:33 | 34.25492 | -120.68999 | 31971 ft | 390 kts | 247° |
| 2026-04-22 13:33 | 34.24320 | -120.71951 | 32166 ft | 389 kts | 247° |
| 2026-04-22 13:33 | 34.23149 | -120.74902 | 32372 ft | 388 kts | 247° |
| 2026-04-22 13:34 | 34.21982 | -120.77838 | 32576 ft | 388 kts | 247° |
| 2026-04-22 13:34 | 34.20816 | -120.80772 | 32769 ft | 387 kts | 247° |
| 2026-04-22 13:34 | 34.19650 | -120.83703 | 32950 ft | 387 kts | 247° |
| 2026-04-22 13:34 | 34.18487 | -120.86624 | 33137 ft | 386 kts | 247° |
| 2026-04-22 13:35 | 34.17340 | -120.89501 | 33327 ft | 385 kts | 247° |
| 2026-04-22 13:35 | 34.16178 | -120.92414 | 33506 ft | 385 kts | 247° |
| 2026-04-22 13:35 | 34.15017 | -120.95324 | 33675 ft | 384 kts | 247° |
| 2026-04-22 13:36 | 34.12686 | -121.01156 | 33846 ft | 387 kts | 247° |
| 2026-04-22 13:36 | 34.11514 | -121.04083 | 34018 ft | 386 kts | 247° |
| 2026-04-22 13:36 | 34.10349 | -121.06992 | 34185 ft | 385 kts | 247° |
| 2026-04-22 13:36 | 34.09184 | -121.09897 | 34348 ft | 384 kts | 247° |
| 2026-04-22 13:37 | 34.08018 | -121.12801 | 34505 ft | 383 kts | 247° |
| 2026-04-22 13:37 | 34.06857 | -121.15691 | 34652 ft | 382 kts | 247° |
| 2026-04-22 13:37 | 34.05714 | -121.18534 | 34785 ft | 381 kts | 247° |
| 2026-04-22 13:37 | 34.04560 | -121.21404 | 34916 ft | 380 kts | 247° |
| 2026-04-22 13:38 | 34.03406 | -121.24270 | 35049 ft | 380 kts | 247° |
| 2026-04-22 13:38 | 34.01094 | -121.30004 | 35191 ft | 381 kts | 247° |
| 2026-04-22 13:38 | 33.99934 | -121.32878 | 35250 ft | 381 kts | 247° |
| 2026-04-22 13:39 | 33.97614 | -121.38620 | 35344 ft | 384 kts | 247° |
| 2026-04-22 13:39 | 33.95655 | -121.43459 | 35536 ft | 382 kts | 247° |
| 2026-04-22 13:40 | 33.94115 | -121.47254 | 35771 ft | 379 kts | 248° |
| 2026-04-22 13:40 | 33.92962 | -121.50093 | 35967 ft | 376 kts | 248° |
| 2026-04-22 13:40 | 33.91816 | -121.52914 | 36090 ft | 375 kts | 248° |
| 2026-04-22 13:40 | 33.91057 | -121.54783 | 36164 ft | 374 kts | 248° |
| 2026-04-22 13:41 | 33.88768 | -121.60412 | 36221 ft | 375 kts | 248° |
| 2026-04-22 13:41 | 33.86473 | -121.66046 | 36236 ft | 376 kts | 248° |
| 2026-04-22 13:42 | 33.84165 | -121.71703 | 36236 ft | 377 kts | 248° |
| 2026-04-22 13:42 | 33.81845 | -121.77377 | 36234 ft | 379 kts | 248° |
| 2026-04-22 13:43 | 33.79511 | -121.83076 | 36234 ft | 380 kts | 248° |
| 2026-04-22 13:43 | 33.77170 | -121.88782 | 36234 ft | 381 kts | 248° |
| 2026-04-22 13:44 | 33.74836 | -121.94461 | 36235 ft | 381 kts | 248° |
| 2026-04-22 13:44 | 33.72484 | -122.00175 | 36234 ft | 381 kts | 248° |
| 2026-04-22 13:45 | 33.70131 | -122.05882 | 36232 ft | 381 kts | 248° |
| 2026-04-22 13:45 | 33.67775 | -122.11587 | 36234 ft | 380 kts | 247° |
| 2026-04-22 13:46 | 33.65427 | -122.17252 | 36227 ft | 375 kts | 248° |
| 2026-04-22 13:46 | 33.63135 | -122.22786 | 36225 ft | 369 kts | 248° |
| 2026-04-22 13:47 | 33.60853 | -122.28290 | 36227 ft | 367 kts | 248° |
| 2026-04-22 13:47 | 33.58584 | -122.33751 | 36235 ft | 365 kts | 248° |
| 2026-04-22 13:48 | 33.56323 | -122.39185 | 36240 ft | 364 kts | 247° |
| 2026-04-22 13:48 | 33.54069 | -122.44595 | 36239 ft | 365 kts | 247° |
| 2026-04-22 13:49 | 33.51789 | -122.50060 | 36243 ft | 367 kts | 247° |
| 2026-04-22 13:49 | 33.49500 | -122.55532 | 36242 ft | 368 kts | 247° |
| 2026-04-22 13:50 | 33.47672 | -122.61225 | 36234 ft | 365 kts | 258° |
| 2026-04-22 13:50 | 33.46477 | -122.67157 | 36232 ft | 367 kts | 257° |
| 2026-04-22 13:51 | 33.45267 | -122.73102 | 36239 ft | 368 kts | 257° |
| 2026-04-22 13:51 | 33.44041 | -122.79070 | 36237 ft | 369 kts | 257° |
| 2026-04-22 13:52 | 33.42813 | -122.85013 | 36240 ft | 370 kts | 257° |
| 2026-04-22 13:52 | 33.41570 | -122.91002 | 36240 ft | 370 kts | 257° |
| 2026-04-22 13:53 | 33.40326 | -122.96986 | 36238 ft | 370 kts | 257° |
| 2026-04-22 13:53 | 33.39082 | -123.02947 | 36240 ft | 369 kts | 257° |
| 2026-04-22 13:54 | 33.37848 | -123.08850 | 36240 ft | 367 kts | 257° |
| 2026-04-22 13:54 | 33.36609 | -123.14759 | 36240 ft | 365 kts | 257° |
| 2026-04-22 13:55 | 33.35373 | -123.20642 | 36262 ft | 363 kts | 257° |
| 2026-04-22 13:55 | 33.34139 | -123.26498 | 36248 ft | 362 kts | 257° |
| 2026-04-22 13:56 | 33.32908 | -123.32325 | 36244 ft | 361 kts | 257° |
| 2026-04-22 13:56 | 33.31678 | -123.38136 | 36247 ft | 360 kts | 257° |
| 2026-04-22 13:57 | 33.30446 | -123.43941 | 36249 ft | 360 kts | 257° |
| 2026-04-22 13:57 | 33.29211 | -123.49746 | 36248 ft | 360 kts | 257° |
| 2026-04-22 13:58 | 33.27979 | -123.55519 | 36249 ft | 361 kts | 257° |
| 2026-04-22 13:58 | 33.26734 | -123.61343 | 36250 ft | 362 kts | 257° |
| 2026-04-22 13:59 | 33.25483 | -123.67179 | 36248 ft | 363 kts | 257° |
| 2026-04-22 13:59 | 33.24223 | -123.73041 | 36253 ft | 364 kts | 256° |
| 2026-04-22 14:00 | 33.22959 | -123.78911 | 36253 ft | 365 kts | 256° |
| 2026-04-22 14:00 | 33.21688 | -123.84797 | 36255 ft | 366 kts | 256° |
| 2026-04-22 14:01 | 33.20423 | -123.90642 | 36253 ft | 366 kts | 256° |
| 2026-04-22 14:01 | 33.19145 | -123.96527 | 36252 ft | 366 kts | 256° |
| 2026-04-22 14:02 | 33.17867 | -124.02402 | 36254 ft | 365 kts | 256° |
| 2026-04-22 14:02 | 33.16588 | -124.08268 | 36254 ft | 365 kts | 256° |
| 2026-04-22 14:03 | 33.15310 | -124.14115 | 36251 ft | 364 kts | 256° |
| 2026-04-22 14:03 | 33.14031 | -124.19951 | 36251 ft | 362 kts | 256° |
| 2026-04-22 14:04 | 33.12753 | -124.25768 | 36255 ft | 361 kts | 256° |
| 2026-04-22 14:04 | 33.11489 | -124.31509 | 36253 ft | 360 kts | 256° |
| 2026-04-22 14:05 | 33.10216 | -124.37280 | 36253 ft | 359 kts | 256° |
| 2026-04-22 14:06 | 33.08310 | -124.45898 | 36258 ft | 357 kts | 256° |
| 2026-04-22 14:06 | 33.07036 | -124.51633 | 36265 ft | 357 kts | 256° |
| 2026-04-22 14:07 | 33.05762 | -124.57343 | 36255 ft | 356 kts | 256° |
| 2026-04-22 14:07 | 33.04490 | -124.63021 | 36264 ft | 357 kts | 256° |
| 2026-04-22 14:08 | 33.03208 | -124.68735 | 36259 ft | 357 kts | 256° |
| 2026-04-22 14:08 | 33.01922 | -124.74458 | 36254 ft | 357 kts | 256° |
| 2026-04-22 14:09 | 33.00632 | -124.80183 | 36254 ft | 358 kts | 256° |
| 2026-04-22 14:09 | 32.99338 | -124.85912 | 36261 ft | 358 kts | 256° |
| 2026-04-22 14:10 | 32.98040 | -124.91650 | 36260 ft | 359 kts | 256° |
| 2026-04-22 14:10 | 32.96736 | -124.97401 | 36259 ft | 360 kts | 256° |
| 2026-04-22 14:11 | 32.95435 | -125.03121 | 36256 ft | 360 kts | 256° |
| 2026-04-22 14:11 | 32.94120 | -125.08892 | 36270 ft | 360 kts | 256° |
| 2026-04-22 14:12 | 32.92807 | -125.14641 | 36264 ft | 360 kts | 256° |
| 2026-04-22 14:12 | 32.91497 | -125.20365 | 36265 ft | 360 kts | 256° |
| 2026-04-22 14:13 | 32.90176 | -125.26120 | 36259 ft | 360 kts | 256° |
| 2026-04-22 14:13 | 32.88856 | -125.31860 | 36258 ft | 359 kts | 256° |
| 2026-04-22 14:14 | 32.87537 | -125.37585 | 36263 ft | 359 kts | 256° |
| 2026-04-22 14:14 | 32.86214 | -125.43311 | 36263 ft | 358 kts | 256° |
| 2026-04-22 14:15 | 32.84893 | -125.49016 | 36265 ft | 358 kts | 256° |
| 2026-04-22 14:15 | 32.83570 | -125.54716 | 36258 ft | 357 kts | 256° |
| 2026-04-22 14:16 | 32.82248 | -125.60401 | 36268 ft | 357 kts | 256° |
| 2026-04-22 14:16 | 32.80931 | -125.66048 | 36265 ft | 357 kts | 255° |
| 2026-04-22 14:17 | 32.79604 | -125.71730 | 36262 ft | 357 kts | 255° |
| 2026-04-22 14:17 | 32.78273 | -125.77414 | 36255 ft | 357 kts | 255° |
| 2026-04-22 14:18 | 32.76941 | -125.83092 | 36270 ft | 357 kts | 255° |
| 2026-04-22 14:18 | 32.75603 | -125.88779 | 36270 ft | 358 kts | 255° |
| 2026-04-22 14:19 | 32.74259 | -125.94480 | 36266 ft | 358 kts | 255° |
| 2026-04-22 14:19 | 32.72913 | -126.00179 | 36271 ft | 359 kts | 255° |
| 2026-04-22 14:20 | 32.70881 | -126.08756 | 36268 ft | 360 kts | 255° |
| 2026-04-22 14:20 | 32.69521 | -126.14484 | 36267 ft | 360 kts | 255° |
| 2026-04-22 14:21 | 32.67480 | -126.23051 | 36268 ft | 361 kts | 255° |
| 2026-04-22 14:22 | 32.65422 | -126.31660 | 36268 ft | 361 kts | 255° |
| 2026-04-22 14:23 | 32.63362 | -126.40251 | 36269 ft | 361 kts | 255° |
| 2026-04-22 14:23 | 32.61986 | -126.45973 | 36268 ft | 361 kts | 255° |
| 2026-04-22 14:24 | 32.60608 | -126.51692 | 36262 ft | 360 kts | 255° |
| 2026-04-22 14:24 | 32.59229 | -126.57403 | 36269 ft | 360 kts | 255° |
| 2026-04-22 14:25 | 32.57849 | -126.63104 | 36271 ft | 360 kts | 255° |
| 2026-04-22 14:25 | 32.56468 | -126.68798 | 36274 ft | 359 kts | 255° |
| 2026-04-22 14:26 | 32.55092 | -126.74458 | 36273 ft | 359 kts | 255° |
| 2026-04-22 14:26 | 32.53707 | -126.80143 | 36268 ft | 359 kts | 255° |
| 2026-04-22 14:27 | 32.52318 | -126.85832 | 36276 ft | 359 kts | 255° |
| 2026-04-22 14:27 | 32.50927 | -126.91522 | 36275 ft | 359 kts | 255° |
| 2026-04-22 14:28 | 32.49531 | -126.97212 | 36271 ft | 360 kts | 255° |
| 2026-04-22 14:28 | 32.48367 | -127.01951 | 36268 ft | 360 kts | 255° |
| 2026-04-22 14:29 | 32.46965 | -127.07649 | 36276 ft | 361 kts | 255° |
| 2026-04-22 14:29 | 32.45558 | -127.13352 | 36277 ft | 361 kts | 255° |
| 2026-04-22 14:30 | 32.44145 | -127.19068 | 36277 ft | 362 kts | 255° |
| 2026-04-22 14:30 | 32.42737 | -127.24750 | 36270 ft | 362 kts | 255° |
| 2026-04-22 14:31 | 32.41318 | -127.30469 | 36279 ft | 362 kts | 255° |
| 2026-04-22 14:31 | 32.39893 | -127.36193 | 36289 ft | 363 kts | 255° |
| 2026-04-22 14:32 | 32.38466 | -127.41920 | 36276 ft | 363 kts | 255° |
| 2026-04-22 14:32 | 32.37033 | -127.47652 | 36263 ft | 363 kts | 255° |
| 2026-04-22 14:33 | 32.35600 | -127.53376 | 36278 ft | 363 kts | 254° |
| 2026-04-22 14:33 | 32.34175 | -127.59056 | 36274 ft | 362 kts | 254° |
| 2026-04-22 14:34 | 32.32737 | -127.64774 | 36281 ft | 362 kts | 254° |
| 2026-04-22 14:34 | 32.31302 | -127.70470 | 36283 ft | 361 kts | 254° |
| 2026-04-22 14:35 | 32.29864 | -127.76165 | 36278 ft | 361 kts | 254° |
| 2026-04-22 14:35 | 32.28425 | -127.81852 | 36290 ft | 360 kts | 254° |
| 2026-04-22 14:36 | 32.26987 | -127.87525 | 36286 ft | 361 kts | 254° |
| 2026-04-22 14:36 | 32.25541 | -127.93215 | 36289 ft | 361 kts | 254° |
| 2026-04-22 14:37 | 32.24094 | -127.98896 | 36283 ft | 362 kts | 254° |
| 2026-04-22 14:37 | 32.22648 | -128.04566 | 36286 ft | 363 kts | 254° |
| 2026-04-22 14:38 | 32.21187 | -128.10282 | 36292 ft | 365 kts | 254° |
| 2026-04-22 14:38 | 32.19714 | -128.16028 | 36288 ft | 366 kts | 254° |
| 2026-04-22 14:39 | 32.18234 | -128.21796 | 36280 ft | 368 kts | 253° |
| 2026-04-22 14:39 | 32.16745 | -128.27583 | 36285 ft | 369 kts | 253° |
| 2026-04-22 14:40 | 32.14499 | -128.36287 | 36283 ft | 370 kts | 253° |
| 2026-04-22 14:40 | 32.12997 | -128.42094 | 36282 ft | 370 kts | 253° |
| 2026-04-22 14:41 | 32.11490 | -128.47911 | 36284 ft | 370 kts | 253° |
| 2026-04-22 14:41 | 32.09992 | -128.53678 | 36286 ft | 369 kts | 253° |
| 2026-04-22 14:42 | 32.08486 | -128.59466 | 36286 ft | 369 kts | 253° |
| 2026-04-22 14:42 | 32.06980 | -128.65239 | 36285 ft | 368 kts | 253° |
| 2026-04-22 14:43 | 32.05477 | -128.70991 | 36293 ft | 366 kts | 253° |
| 2026-04-22 14:43 | 32.03975 | -128.76726 | 36282 ft | 365 kts | 253° |
| 2026-04-22 14:44 | 32.02485 | -128.82405 | 36284 ft | 364 kts | 253° |
| 2026-04-22 14:44 | 32.00987 | -128.88100 | 36286 ft | 363 kts | 253° |
| 2026-04-22 14:45 | 31.99492 | -128.93778 | 36286 ft | 362 kts | 253° |
| 2026-04-22 14:45 | 31.97996 | -128.99443 | 36286 ft | 362 kts | 253° |
| 2026-04-22 14:46 | 31.96496 | -129.05114 | 36284 ft | 363 kts | 253° |
| 2026-04-22 14:46 | 31.94991 | -129.10790 | 36289 ft | 363 kts | 253° |
| 2026-04-22 14:47 | 31.93480 | -129.16480 | 36291 ft | 364 kts | 253° |
| 2026-04-22 14:47 | 31.91967 | -129.22165 | 36290 ft | 366 kts | 253° |
| 2026-04-22 14:48 | 31.90441 | -129.27887 | 36291 ft | 367 kts | 253° |
| 2026-04-22 14:48 | 31.88906 | -129.33635 | 36288 ft | 368 kts | 253° |
| 2026-04-22 14:49 | 31.87363 | -129.39397 | 36288 ft | 369 kts | 253° |
| 2026-04-22 14:49 | 31.85812 | -129.45178 | 36288 ft | 370 kts | 253° |
| 2026-04-22 14:50 | 31.84259 | -129.50956 | 36288 ft | 371 kts | 253° |
| 2026-04-22 14:50 | 31.82712 | -129.56696 | 36286 ft | 371 kts | 253° |
| 2026-04-22 14:51 | 31.81154 | -129.62472 | 36291 ft | 370 kts | 252° |
| 2026-04-22 14:51 | 31.79596 | -129.68233 | 36290 ft | 370 kts | 252° |
| 2026-04-22 14:52 | 31.78037 | -129.73986 | 36290 ft | 369 kts | 252° |
| 2026-04-22 14:52 | 31.76476 | -129.79733 | 36290 ft | 368 kts | 252° |
| 2026-04-22 14:53 | 31.74918 | -129.85461 | 36285 ft | 367 kts | 252° |
| 2026-04-22 14:53 | 31.73361 | -129.91172 | 36288 ft | 367 kts | 252° |
| 2026-04-22 14:54 | 31.71815 | -129.96832 | 36291 ft | 366 kts | 252° |
| 2026-04-22 14:54 | 31.70257 | -130.02523 | 36291 ft | 365 kts | 252° |
| 2026-04-22 14:55 | 31.68700 | -130.08201 | 36290 ft | 365 kts | 252° |
| 2026-04-22 14:55 | 31.67138 | -130.13887 | 36288 ft | 366 kts | 252° |
| 2026-04-22 14:56 | 31.65571 | -130.19578 | 36289 ft | 366 kts | 252° |
| 2026-04-22 14:56 | 31.63998 | -130.25283 | 36290 ft | 368 kts | 252° |
| 2026-04-22 14:57 | 31.62417 | -130.31005 | 36292 ft | 369 kts | 252° |
| 2026-04-22 14:57 | 31.60838 | -130.36708 | 36290 ft | 371 kts | 252° |
| 2026-04-22 14:58 | 31.59238 | -130.42475 | 36290 ft | 372 kts | 252° |
| 2026-04-22 14:58 | 31.57630 | -130.48258 | 36284 ft | 373 kts | 252° |
| 2026-04-22 14:59 | 31.56015 | -130.54055 | 36289 ft | 374 kts | 252° |
| 2026-04-22 14:59 | 31.54396 | -130.59856 | 36288 ft | 374 kts | 252° |
| 2026-04-22 15:00 | 31.52788 | -130.65611 | 36290 ft | 374 kts | 251° |
| 2026-04-22 15:00 | 31.51164 | -130.71405 | 36288 ft | 373 kts | 251° |
| 2026-04-22 15:01 | 31.49540 | -130.77188 | 36287 ft | 373 kts | 251° |
| 2026-04-22 15:01 | 31.47916 | -130.82963 | 36289 ft | 373 kts | 251° |
| 2026-04-22 15:02 | 31.46291 | -130.88729 | 36288 ft | 372 kts | 251° |
| 2026-04-22 15:02 | 31.44669 | -130.94476 | 36281 ft | 371 kts | 251° |
| 2026-04-22 15:03 | 31.43046 | -131.00213 | 36285 ft | 371 kts | 251° |
| 2026-04-22 15:03 | 31.41432 | -131.05904 | 36285 ft | 370 kts | 251° |
| 2026-04-22 15:04 | 31.39804 | -131.11637 | 36285 ft | 370 kts | 251° |
| 2026-04-22 15:04 | 31.38180 | -131.17346 | 36282 ft | 370 kts | 251° |
| 2026-04-22 15:05 | 31.36552 | -131.23057 | 36286 ft | 370 kts | 251° |
| 2026-04-22 15:05 | 31.34924 | -131.28758 | 36287 ft | 369 kts | 251° |
| 2026-04-22 15:06 | 31.33292 | -131.34459 | 36286 ft | 370 kts | 251° |
| 2026-04-22 15:06 | 31.31659 | -131.40157 | 36287 ft | 369 kts | 251° |
| 2026-04-22 15:07 | 31.30022 | -131.45855 | 36284 ft | 370 kts | 251° |
| 2026-04-22 15:07 | 31.28382 | -131.51556 | 36282 ft | 370 kts | 251° |
| 2026-04-22 15:08 | 31.26746 | -131.57229 | 36274 ft | 370 kts | 251° |
| 2026-04-22 15:08 | 31.25099 | -131.62933 | 36284 ft | 370 kts | 251° |
| 2026-04-22 15:09 | 31.23448 | -131.68637 | 36281 ft | 371 kts | 251° |
| 2026-04-22 15:09 | 31.21792 | -131.74348 | 36279 ft | 371 kts | 251° |
| 2026-04-22 15:10 | 31.20131 | -131.80065 | 36281 ft | 372 kts | 250° |
| 2026-04-22 15:10 | 31.18465 | -131.85793 | 36288 ft | 372 kts | 250° |
| 2026-04-22 15:11 | 31.16791 | -131.91532 | 36280 ft | 373 kts | 250° |
| 2026-04-22 15:11 | 31.15128 | -131.97226 | 36277 ft | 373 kts | 250° |
| 2026-04-22 15:12 | 31.13450 | -132.02962 | 36279 ft | 374 kts | 250° |
| 2026-04-22 15:12 | 31.11767 | -132.08705 | 36286 ft | 374 kts | 250° |
| 2026-04-22 15:13 | 31.10077 | -132.14456 | 36287 ft | 375 kts | 250° |
| 2026-04-22 15:13 | 31.08379 | -132.20222 | 36278 ft | 376 kts | 250° |
| 2026-04-22 15:14 | 31.06674 | -132.25996 | 36280 ft | 376 kts | 250° |
| 2026-04-22 15:14 | 31.04963 | -132.31782 | 36281 ft | 377 kts | 250° |
| 2026-04-22 15:15 | 31.03540 | -132.36591 | 36281 ft | 378 kts | 250° |
| 2026-04-22 15:15 | 31.01539 | -132.43337 | 36278 ft | 379 kts | 250° |
| 2026-04-22 15:16 | 30.99814 | -132.49137 | 36285 ft | 379 kts | 250° |
| 2026-04-22 15:16 | 30.98375 | -132.53973 | 36280 ft | 379 kts | 250° |
| 2026-04-22 15:17 | 30.96641 | -132.59786 | 36280 ft | 380 kts | 250° |
| 2026-04-22 15:17 | 30.94903 | -132.65602 | 36278 ft | 380 kts | 250° |
| 2026-04-22 15:18 | 30.93163 | -132.71416 | 36282 ft | 380 kts | 250° |
| 2026-04-22 15:18 | 30.91419 | -132.77231 | 36284 ft | 380 kts | 250° |
| 2026-04-22 15:19 | 30.89672 | -132.83047 | 36279 ft | 380 kts | 250° |
| 2026-04-22 15:19 | 30.87880 | -132.88826 | 36276 ft | 379 kts | 249° |
| 2026-04-22 15:20 | 30.86115 | -132.94609 | 36281 ft | 379 kts | 250° |
| 2026-04-22 15:20 | 30.84411 | -133.00371 | 36279 ft | 379 kts | 250° |
| 2026-04-22 15:21 | 30.82683 | -133.06160 | 36278 ft | 378 kts | 249° |
| 2026-04-22 15:21 | 30.80942 | -133.11932 | 36284 ft | 378 kts | 249° |
| 2026-04-22 15:22 | 30.79192 | -133.17702 | 36279 ft | 378 kts | 249° |
| 2026-04-22 15:22 | 30.77439 | -133.23462 | 36278 ft | 378 kts | 249° |
| 2026-04-22 15:23 | 30.75680 | -133.29231 | 36286 ft | 378 kts | 249° |
| 2026-04-22 15:23 | 30.73915 | -133.35011 | 36282 ft | 379 kts | 249° |
| 2026-04-22 15:24 | 30.72157 | -133.40754 | 36280 ft | 380 kts | 249° |
| 2026-04-22 15:24 | 30.70380 | -133.46552 | 36274 ft | 381 kts | 249° |
| 2026-04-22 15:25 | 30.68596 | -133.52360 | 36281 ft | 382 kts | 249° |
| 2026-04-22 15:25 | 30.66804 | -133.58185 | 36282 ft | 383 kts | 249° |
| 2026-04-22 15:26 | 30.65004 | -133.64025 | 36282 ft | 384 kts | 249° |
| 2026-04-22 15:26 | 30.63198 | -133.69872 | 36286 ft | 385 kts | 249° |
| 2026-04-22 15:27 | 30.61384 | -133.75738 | 36281 ft | 386 kts | 249° |
| 2026-04-22 15:27 | 30.59565 | -133.81607 | 36281 ft | 387 kts | 249° |
| 2026-04-22 15:28 | 30.57737 | -133.87493 | 36275 ft | 388 kts | 249° |
| 2026-04-22 15:28 | 30.55906 | -133.93379 | 36278 ft | 388 kts | 249° |
| 2026-04-22 15:29 | 30.54067 | -133.99282 | 36271 ft | 389 kts | 249° |
| 2026-04-22 15:30 | 30.51296 | -134.08152 | 36277 ft | 391 kts | 249° |
| 2026-04-22 15:30 | 30.49447 | -134.14058 | 36285 ft | 392 kts | 249° |
| 2026-04-22 15:31 | 30.47581 | -134.20008 | 36280 ft | 393 kts | 249° |
| 2026-04-22 15:31 | 30.45705 | -134.25979 | 36266 ft | 395 kts | 249° |
| 2026-04-22 15:32 | 30.43817 | -134.31977 | 36278 ft | 397 kts | 249° |
| 2026-04-22 15:32 | 30.41920 | -134.37994 | 36279 ft | 398 kts | 249° |
| 2026-04-22 15:33 | 30.40021 | -134.44002 | 36269 ft | 400 kts | 249° |
| 2026-04-22 15:33 | 30.38101 | -134.50071 | 36285 ft | 402 kts | 249° |
| 2026-04-22 15:34 | 30.36167 | -134.56167 | 36272 ft | 404 kts | 249° |
| 2026-04-22 15:34 | 30.34224 | -134.62286 | 36273 ft | 406 kts | 249° |
| 2026-04-22 15:35 | 30.32600 | -134.67389 | 36269 ft | 407 kts | 249° |
| 2026-04-22 15:35 | 30.30305 | -134.74585 | 36274 ft | 408 kts | 249° |
| 2026-04-22 15:36 | 30.28333 | -134.80760 | 36277 ft | 409 kts | 249° |
| 2026-04-22 15:36 | 30.26371 | -134.86890 | 36273 ft | 409 kts | 249° |
| 2026-04-22 15:37 | 30.24393 | -134.93058 | 36271 ft | 409 kts | 249° |
| 2026-04-22 15:37 | 30.22414 | -134.99217 | 36271 ft | 408 kts | 249° |
| 2026-04-22 15:38 | 30.20435 | -135.05367 | 36276 ft | 407 kts | 249° |
| 2026-04-22 15:38 | 30.17460 | -135.14586 | 36277 ft | 408 kts | 249° |
| 2026-04-22 15:39 | 30.15485 | -135.20695 | 36265 ft | 408 kts | 249° |
| 2026-04-22 15:39 | 30.13495 | -135.26840 | 36271 ft | 409 kts | 249° |
| 2026-04-22 15:40 | 30.11499 | -135.32988 | 36276 ft | 409 kts | 249° |
| 2026-04-22 15:40 | 30.09493 | -135.39157 | 36280 ft | 411 kts | 249° |
| 2026-04-22 15:41 | 30.07474 | -135.45354 | 36280 ft | 413 kts | 249° |
| 2026-04-22 15:41 | 30.05437 | -135.51595 | 36277 ft | 416 kts | 249° |
| 2026-04-22 15:42 | 30.03392 | -135.57852 | 36272 ft | 418 kts | 249° |
| 2026-04-22 15:42 | 30.01339 | -135.64116 | 36274 ft | 420 kts | 249° |
| 2026-04-22 15:43 | 29.99265 | -135.70440 | 36276 ft | 422 kts | 249° |
| 2026-04-22 15:43 | 29.97175 | -135.76795 | 36277 ft | 425 kts | 249° |
| 2026-04-22 15:44 | 29.95065 | -135.83202 | 36276 ft | 427 kts | 250° |
| 2026-04-22 15:44 | 29.92948 | -135.89617 | 36272 ft | 429 kts | 250° |
| 2026-04-22 15:45 | 29.90834 | -135.96010 | 36273 ft | 431 kts | 250° |
| 2026-04-22 15:45 | 29.88690 | -136.02479 | 36261 ft | 432 kts | 250° |
| 2026-04-22 15:46 | 29.86540 | -136.08959 | 36270 ft | 433 kts | 250° |
| 2026-04-22 15:46 | 29.84385 | -136.15440 | 36266 ft | 433 kts | 250° |
| 2026-04-22 15:47 | 29.82225 | -136.21921 | 36257 ft | 433 kts | 250° |
| 2026-04-22 15:47 | 29.80065 | -136.28392 | 36261 ft | 433 kts | 250° |
| 2026-04-22 15:48 | 29.77917 | -136.34814 | 36264 ft | 432 kts | 250° |
| 2026-04-22 15:48 | 29.75755 | -136.41266 | 36256 ft | 432 kts | 250° |
| 2026-04-22 15:49 | 29.73589 | -136.47719 | 36267 ft | 432 kts | 250° |
| 2026-04-22 15:49 | 29.71421 | -136.54164 | 36259 ft | 432 kts | 250° |
| 2026-04-22 15:50 | 29.69249 | -136.60611 | 36262 ft | 432 kts | 250° |
| 2026-04-22 15:50 | 29.67075 | -136.67048 | 36268 ft | 432 kts | 250° |
| 2026-04-22 15:51 | 29.64893 | -136.73500 | 36264 ft | 433 kts | 250° |
| 2026-04-22 15:51 | 29.62706 | -136.79956 | 36264 ft | 434 kts | 250° |
| 2026-04-22 15:52 | 29.60522 | -136.86387 | 36263 ft | 434 kts | 250° |
| 2026-04-22 15:52 | 29.58319 | -136.92865 | 36266 ft | 435 kts | 250° |
| 2026-04-22 15:53 | 29.56109 | -136.99352 | 36254 ft | 436 kts | 250° |
| 2026-04-22 15:53 | 29.53892 | -137.05845 | 36268 ft | 437 kts | 250° |
| 2026-04-22 15:54 | 29.51669 | -137.12344 | 36260 ft | 438 kts | 250° |
| 2026-04-22 15:54 | 29.49440 | -137.18849 | 36262 ft | 438 kts | 250° |
| 2026-04-22 15:55 | 29.47215 | -137.25332 | 36259 ft | 439 kts | 250° |
| 2026-04-22 15:55 | 29.44975 | -137.31845 | 36262 ft | 439 kts | 250° |
| 2026-04-22 15:56 | 29.42729 | -137.38363 | 36257 ft | 440 kts | 250° |
| 2026-04-22 15:56 | 29.40475 | -137.44892 | 36258 ft | 440 kts | 250° |
| 2026-04-22 15:57 | 29.38220 | -137.51410 | 36263 ft | 440 kts | 250° |
| 2026-04-22 15:57 | 29.35956 | -137.57946 | 36259 ft | 440 kts | 250° |
| 2026-04-22 15:58 | 29.33688 | -137.64479 | 36255 ft | 441 kts | 250° |
| 2026-04-22 15:58 | 29.31433 | -137.70962 | 36256 ft | 441 kts | 250° |
| 2026-04-22 15:59 | 29.29159 | -137.77488 | 36257 ft | 441 kts | 250° |
| 2026-04-22 15:59 | 29.26877 | -137.84025 | 36252 ft | 441 kts | 250° |
| 2026-04-22 16:00 | 29.24595 | -137.90551 | 36257 ft | 441 kts | 250° |
| 2026-04-22 16:00 | 29.22306 | -137.97085 | 36250 ft | 442 kts | 250° |
| 2026-04-22 16:01 | 29.20015 | -138.03614 | 36256 ft | 442 kts | 250° |
| 2026-04-22 16:01 | 29.17722 | -138.10134 | 36252 ft | 442 kts | 250° |
| 2026-04-22 16:02 | 29.15807 | -138.15570 | 36254 ft | 442 kts | 250° |
| 2026-04-22 16:02 | 29.13507 | -138.22090 | 36252 ft | 442 kts | 250° |
| 2026-04-22 16:03 | 29.10829 | -138.29665 | 36242 ft | 442 kts | 250° |
| 2026-04-22 16:03 | 29.08896 | -138.35124 | 36256 ft | 442 kts | 250° |
| 2026-04-22 16:04 | 29.06587 | -138.41633 | 36252 ft | 442 kts | 250° |
| 2026-04-22 16:04 | 29.04288 | -138.48103 | 36262 ft | 441 kts | 250° |
| 2026-04-22 16:05 | 29.01974 | -138.54602 | 36248 ft | 441 kts | 250° |
| 2026-04-22 16:05 | 28.99659 | -138.61091 | 36251 ft | 441 kts | 250° |
| 2026-04-22 16:06 | 28.97347 | -138.67564 | 36253 ft | 439 kts | 250° |
| 2026-04-22 16:06 | 28.95035 | -138.74024 | 36246 ft | 439 kts | 250° |
| 2026-04-22 16:07 | 28.92725 | -138.80466 | 36251 ft | 437 kts | 250° |
| 2026-04-22 16:07 | 28.90418 | -138.86889 | 36240 ft | 436 kts | 250° |
| 2026-04-22 16:08 | 28.88130 | -138.93246 | 36251 ft | 435 kts | 250° |
| 2026-04-22 16:08 | 28.85825 | -138.99642 | 36249 ft | 435 kts | 250° |
| 2026-04-22 16:09 | 28.83519 | -139.06028 | 36253 ft | 435 kts | 250° |
| 2026-04-22 16:09 | 28.81208 | -139.12418 | 36261 ft | 435 kts | 250° |
| 2026-04-22 16:10 | 28.78896 | -139.18798 | 36236 ft | 436 kts | 250° |
| 2026-04-22 16:10 | 28.76577 | -139.25185 | 36251 ft | 436 kts | 250° |
| 2026-04-22 16:11 | 28.74254 | -139.31576 | 36258 ft | 437 kts | 250° |
| 2026-04-22 16:11 | 28.71923 | -139.37978 | 36245 ft | 438 kts | 250° |
| 2026-04-22 16:12 | 28.69583 | -139.44389 | 36246 ft | 438 kts | 249° |
| 2026-04-22 16:12 | 28.67246 | -139.50760 | 36235 ft | 438 kts | 249° |
| 2026-04-22 16:13 | 28.64894 | -139.57157 | 36255 ft | 438 kts | 249° |
| 2026-04-22 16:13 | 28.62539 | -139.63554 | 36240 ft | 438 kts | 249° |
| 2026-04-22 16:14 | 28.60186 | -139.69936 | 36242 ft | 437 kts | 249° |
| 2026-04-22 16:14 | 28.57833 | -139.76306 | 36251 ft | 436 kts | 249° |
| 2026-04-22 16:15 | 28.55483 | -139.82660 | 36238 ft | 435 kts | 249° |
| 2026-04-22 16:15 | 28.53151 | -139.88953 | 36236 ft | 434 kts | 249° |
| 2026-04-22 16:16 | 28.50802 | -139.95282 | 36237 ft | 433 kts | 249° |
| 2026-04-22 16:16 | 28.48461 | -140.01579 | 36240 ft | 432 kts | 249° |
| 2026-04-22 16:17 | 28.46119 | -140.07868 | 36234 ft | 431 kts | 249° |
| 2026-04-22 16:17 | 28.43780 | -140.14138 | 36232 ft | 430 kts | 249° |
| 2026-04-22 16:18 | 28.41457 | -140.20352 | 36246 ft | 430 kts | 249° |
| 2026-04-22 16:18 | 28.39119 | -140.26600 | 36237 ft | 430 kts | 249° |
| 2026-04-22 16:19 | 28.36777 | -140.32847 | 36237 ft | 430 kts | 249° |
| 2026-04-22 16:19 | 28.34431 | -140.39095 | 36236 ft | 430 kts | 249° |
| 2026-04-22 16:20 | 28.32082 | -140.45339 | 36239 ft | 430 kts | 249° |
| 2026-04-22 16:20 | 28.29730 | -140.51581 | 36226 ft | 430 kts | 249° |
| 2026-04-22 16:21 | 28.27374 | -140.57825 | 36237 ft | 430 kts | 249° |
| 2026-04-22 16:21 | 28.25019 | -140.64055 | 36236 ft | 430 kts | 249° |
| 2026-04-22 16:22 | 28.21476 | -140.73406 | 36217 ft | 430 kts | 249° |
| 2026-04-22 16:23 | 28.17939 | -140.82721 | 36230 ft | 429 kts | 249° |
| 2026-04-22 16:23 | 28.15573 | -140.88939 | 36239 ft | 429 kts | 249° |
| 2026-04-22 16:24 | 28.12045 | -140.98193 | 36239 ft | 428 kts | 249° |
| 2026-04-22 16:25 | 28.09664 | -141.04425 | 36213 ft | 428 kts | 249° |
| 2026-04-22 16:25 | 28.06128 | -141.13661 | 36218 ft | 426 kts | 249° |
| 2026-04-22 16:26 | 28.03767 | -141.19817 | 36230 ft | 426 kts | 249° |
| 2026-04-22 16:26 | 28.01409 | -141.25954 | 36223 ft | 425 kts | 249° |
| 2026-04-22 16:27 | 27.99049 | -141.32087 | 36229 ft | 425 kts | 249° |
| 2026-04-22 16:27 | 27.96702 | -141.38178 | 36211 ft | 425 kts | 249° |
| 2026-04-22 16:28 | 27.94337 | -141.44303 | 36232 ft | 425 kts | 249° |
| 2026-04-22 16:28 | 27.91967 | -141.50434 | 36226 ft | 426 kts | 249° |
| 2026-04-22 16:29 | 27.89588 | -141.56577 | 36226 ft | 427 kts | 248° |
| 2026-04-22 16:29 | 27.87205 | -141.62722 | 36225 ft | 427 kts | 248° |
| 2026-04-22 16:30 | 27.84812 | -141.68881 | 36223 ft | 428 kts | 248° |
| 2026-04-22 16:30 | 27.82414 | -141.75044 | 36222 ft | 428 kts | 248° |
| 2026-04-22 16:31 | 27.80027 | -141.81168 | 36220 ft | 429 kts | 248° |
| 2026-04-22 16:31 | 27.77621 | -141.87332 | 36220 ft | 428 kts | 248° |
| 2026-04-22 16:32 | 27.75215 | -141.93486 | 36218 ft | 427 kts | 248° |
| 2026-04-22 16:32 | 27.72813 | -141.99619 | 36218 ft | 426 kts | 248° |
| 2026-04-22 16:33 | 27.70414 | -142.05736 | 36219 ft | 425 kts | 248° |
| 2026-04-22 16:33 | 27.68019 | -142.11834 | 36216 ft | 424 kts | 248° |
| 2026-04-22 16:34 | 27.65629 | -142.17910 | 36218 ft | 423 kts | 248° |
| 2026-04-22 16:34 | 27.63252 | -142.23942 | 36216 ft | 422 kts | 248° |
| 2026-04-22 16:35 | 27.60864 | -142.29995 | 36216 ft | 422 kts | 248° |
| 2026-04-22 16:35 | 27.58477 | -142.36035 | 36202 ft | 421 kts | 248° |
| 2026-04-22 16:36 | 27.56090 | -142.42064 | 36216 ft | 421 kts | 248° |
| 2026-04-22 16:36 | 27.53699 | -142.48098 | 36216 ft | 422 kts | 248° |
| 2026-04-22 16:37 | 27.51303 | -142.54133 | 36227 ft | 422 kts | 248° |
| 2026-04-22 16:37 | 27.48899 | -142.60178 | 36209 ft | 423 kts | 248° |
| 2026-04-22 16:38 | 27.46504 | -142.66193 | 36210 ft | 424 kts | 248° |
| 2026-04-22 16:38 | 27.44091 | -142.72243 | 36199 ft | 424 kts | 248° |
| 2026-04-22 16:39 | 27.41671 | -142.78300 | 36221 ft | 424 kts | 248° |
| 2026-04-22 16:39 | 27.39243 | -142.84370 | 36210 ft | 425 kts | 248° |
| 2026-04-22 16:40 | 27.36815 | -142.90430 | 36210 ft | 424 kts | 248° |
| 2026-04-22 16:41 | 27.33172 | -142.99505 | 36205 ft | 424 kts | 248° |
| 2026-04-22 16:41 | 27.30744 | -143.05543 | 36201 ft | 423 kts | 248° |
| 2026-04-22 16:42 | 27.28335 | -143.11523 | 36202 ft | 422 kts | 248° |
| 2026-04-22 16:42 | 27.25910 | -143.17533 | 36203 ft | 421 kts | 248° |
| 2026-04-22 16:43 | 27.23492 | -143.23519 | 36205 ft | 420 kts | 248° |
| 2026-04-22 16:43 | 27.21073 | -143.29498 | 36208 ft | 419 kts | 248° |
| 2026-04-22 16:44 | 27.18671 | -143.35427 | 36203 ft | 419 kts | 248° |
| 2026-04-22 16:44 | 27.16254 | -143.41383 | 36194 ft | 418 kts | 248° |
| 2026-04-22 16:45 | 27.13840 | -143.47324 | 36197 ft | 418 kts | 248° |
| 2026-04-22 16:45 | 27.11425 | -143.53259 | 36200 ft | 418 kts | 248° |
| 2026-04-22 16:46 | 27.08999 | -143.59210 | 36200 ft | 419 kts | 248° |
| 2026-04-22 16:46 | 27.06571 | -143.65159 | 36196 ft | 420 kts | 248° |
| 2026-04-22 16:47 | 27.04150 | -143.71083 | 36180 ft | 420 kts | 248° |
| 2026-04-22 16:47 | 27.02102 | -143.76085 | 36199 ft | 421 kts | 249° |
| 2026-04-22 16:48 | 26.99256 | -143.83028 | 36196 ft | 422 kts | 248° |
| 2026-04-22 16:48 | 26.96801 | -143.89008 | 36195 ft | 422 kts | 248° |
| 2026-04-22 16:49 | 26.94344 | -143.94985 | 36194 ft | 422 kts | 248° |
| 2026-04-22 16:49 | 26.91878 | -144.00972 | 36201 ft | 422 kts | 249° |
| 2026-04-22 16:50 | 26.89434 | -144.06899 | 36179 ft | 422 kts | 249° |
| 2026-04-22 16:50 | 26.86972 | -144.12860 | 36187 ft | 421 kts | 249° |
| 2026-04-22 16:51 | 26.84512 | -144.18807 | 36190 ft | 420 kts | 249° |
| 2026-04-22 16:51 | 26.82471 | -144.23738 | 36190 ft | 419 kts | 249° |
| 2026-04-22 16:52 | 26.80016 | -144.29656 | 36187 ft | 419 kts | 249° |
| 2026-04-22 16:52 | 26.77561 | -144.35570 | 36190 ft | 418 kts | 249° |
| 2026-04-22 16:53 | 26.75104 | -144.41477 | 36175 ft | 418 kts | 249° |
| 2026-04-22 16:53 | 26.72654 | -144.47362 | 36182 ft | 417 kts | 249° |
| 2026-04-22 16:54 | 26.70196 | -144.53255 | 36184 ft | 418 kts | 249° |
| 2026-04-22 16:54 | 26.67749 | -144.59115 | 36189 ft | 418 kts | 249° |
| 2026-04-22 16:55 | 26.65283 | -144.65014 | 36187 ft | 419 kts | 249° |
| 2026-04-22 16:55 | 26.62805 | -144.70929 | 36183 ft | 420 kts | 249° |
| 2026-04-22 16:56 | 26.60321 | -144.76853 | 36157 ft | 422 kts | 249° |
| 2026-04-22 16:56 | 26.57827 | -144.82792 | 36172 ft | 422 kts | 249° |
| 2026-04-22 16:57 | 26.55327 | -144.88734 | 36189 ft | 423 kts | 249° |
| 2026-04-22 16:57 | 26.52818 | -144.94693 | 36182 ft | 424 kts | 249° |
| 2026-04-22 16:58 | 26.50313 | -145.00632 | 36181 ft | 425 kts | 249° |
| 2026-04-22 16:58 | 26.47787 | -145.06610 | 36186 ft | 426 kts | 249° |
| 2026-04-22 16:59 | 26.45258 | -145.12590 | 36176 ft | 427 kts | 249° |
| 2026-04-22 16:59 | 26.42717 | -145.18589 | 36178 ft | 427 kts | 249° |
| 2026-04-22 17:00 | 26.40173 | -145.24585 | 36181 ft | 428 kts | 249° |
| 2026-04-22 17:00 | 26.36348 | -145.33585 | 36185 ft | 428 kts | 249° |
| 2026-04-22 17:01 | 26.33792 | -145.39589 | 36179 ft | 429 kts | 249° |
| 2026-04-22 17:01 | 26.31247 | -145.45558 | 36177 ft | 429 kts | 248° |
| 2026-04-22 17:02 | 26.28684 | -145.51564 | 36171 ft | 429 kts | 248° |
| 2026-04-22 17:02 | 26.26116 | -145.57569 | 36165 ft | 429 kts | 248° |
| 2026-04-22 17:03 | 26.23547 | -145.63569 | 36171 ft | 429 kts | 248° |
| 2026-04-22 17:03 | 26.20968 | -145.69586 | 36174 ft | 430 kts | 248° |
| 2026-04-22 17:04 | 26.18387 | -145.75597 | 36172 ft | 430 kts | 248° |
| 2026-04-22 17:04 | 26.15817 | -145.81575 | 36170 ft | 430 kts | 249° |
| 2026-04-22 17:05 | 26.13229 | -145.87587 | 36161 ft | 431 kts | 248° |
| 2026-04-22 17:05 | 26.10634 | -145.93604 | 36171 ft | 431 kts | 248° |
| 2026-04-22 17:06 | 26.08036 | -145.99623 | 36171 ft | 431 kts | 248° |
| 2026-04-22 17:06 | 26.05435 | -146.05637 | 36169 ft | 432 kts | 248° |
| 2026-04-22 17:07 | 26.02828 | -146.11660 | 36168 ft | 432 kts | 248° |
| 2026-04-22 17:07 | 26.00221 | -146.17673 | 36168 ft | 432 kts | 248° |
| 2026-04-22 17:08 | 25.97612 | -146.23691 | 36164 ft | 432 kts | 248° |
| 2026-04-22 17:08 | 25.95014 | -146.29676 | 36169 ft | 432 kts | 248° |
| 2026-04-22 17:09 | 25.92397 | -146.35699 | 36160 ft | 432 kts | 248° |
| 2026-04-22 17:09 | 25.89780 | -146.41714 | 36167 ft | 432 kts | 248° |
| 2026-04-22 17:10 | 25.87158 | -146.47730 | 36171 ft | 433 kts | 248° |
| 2026-04-22 17:10 | 25.84533 | -146.53746 | 36166 ft | 433 kts | 248° |
| 2026-04-22 17:11 | 25.81902 | -146.59767 | 36154 ft | 433 kts | 249° |
| 2026-04-22 17:11 | 25.79266 | -146.65789 | 36167 ft | 433 kts | 249° |
| 2026-04-22 17:12 | 25.76626 | -146.71814 | 36164 ft | 434 kts | 249° |
| 2026-04-22 17:12 | 25.74001 | -146.77798 | 36162 ft | 435 kts | 249° |
| 2026-04-22 17:13 | 25.71352 | -146.83826 | 36162 ft | 435 kts | 249° |
| 2026-04-22 17:13 | 25.68696 | -146.89863 | 36157 ft | 435 kts | 249° |
| 2026-04-22 17:14 | 25.66037 | -146.95897 | 36145 ft | 436 kts | 249° |
| 2026-04-22 17:14 | 25.63369 | -147.01943 | 36161 ft | 436 kts | 249° |
| 2026-04-22 17:15 | 25.60717 | -147.07944 | 36161 ft | 436 kts | 249° |
| 2026-04-22 17:15 | 25.58043 | -147.13989 | 36160 ft | 437 kts | 249° |
| 2026-04-22 17:16 | 25.55366 | -147.20029 | 36160 ft | 437 kts | 249° |
| 2026-04-22 17:16 | 25.52684 | -147.26075 | 36161 ft | 437 kts | 249° |
| 2026-04-22 17:17 | 25.49993 | -147.32131 | 36158 ft | 437 kts | 249° |
| 2026-04-22 17:17 | 25.47303 | -147.38178 | 36151 ft | 437 kts | 249° |
| 2026-04-22 17:18 | 25.44614 | -147.44214 | 36159 ft | 437 kts | 250° |
| 2026-04-22 17:18 | 25.41921 | -147.50251 | 36157 ft | 437 kts | 250° |
| 2026-04-22 17:19 | 25.36546 | -147.62275 | 36155 ft | 437 kts | 250° |
| 2026-04-22 17:20 | 25.31140 | -147.74336 | 36146 ft | 437 kts | 250° |
| 2026-04-22 17:21 | 25.27079 | -147.83373 | 36153 ft | 437 kts | 250° |
| 2026-04-22 17:22 | 25.23011 | -147.92412 | 36158 ft | 438 kts | 250° |
| 2026-04-22 17:23 | 25.18948 | -148.01417 | 36155 ft | 439 kts | 250° |
| 2026-04-22 17:23 | 25.14860 | -148.10460 | 36136 ft | 439 kts | 250° |
| 2026-04-22 17:24 | 25.12129 | -148.16492 | 36160 ft | 439 kts | 250° |
| 2026-04-22 17:24 | 25.09407 | -148.22497 | 36150 ft | 440 kts | 251° |
| 2026-04-22 17:25 | 25.06652 | -148.28565 | 36152 ft | 440 kts | 251° |
| 2026-04-22 17:25 | 25.03901 | -148.34617 | 36156 ft | 441 kts | 251° |
| 2026-04-22 17:26 | 25.01148 | -148.40664 | 36155 ft | 441 kts | 251° |
| 2026-04-22 17:26 | 24.98391 | -148.46712 | 36152 ft | 442 kts | 251° |
| 2026-04-22 17:27 | 24.95631 | -148.52759 | 36145 ft | 441 kts | 251° |
| 2026-04-22 17:27 | 24.92870 | -148.58800 | 36149 ft | 441 kts | 251° |
| 2026-04-22 17:28 | 24.90123 | -148.64801 | 36150 ft | 442 kts | 251° |
| 2026-04-22 17:28 | 24.87356 | -148.70842 | 36148 ft | 442 kts | 251° |
| 2026-04-22 17:29 | 24.84585 | -148.76878 | 36147 ft | 442 kts | 251° |
| 2026-04-22 17:29 | 24.81809 | -148.82921 | 36147 ft | 442 kts | 251° |
| 2026-04-22 17:30 | 24.79034 | -148.88952 | 36151 ft | 441 kts | 251° |
| 2026-04-22 17:30 | 24.76260 | -148.94973 | 36149 ft | 441 kts | 251° |
| 2026-04-22 17:31 | 24.73484 | -149.00991 | 36150 ft | 441 kts | 251° |
| 2026-04-22 17:31 | 24.70705 | -149.07009 | 36143 ft | 441 kts | 251° |
| 2026-04-22 17:32 | 24.67928 | -149.13014 | 36144 ft | 440 kts | 251° |
| 2026-04-22 17:32 | 24.65148 | -149.19016 | 36144 ft | 440 kts | 251° |
| 2026-04-22 17:33 | 24.62385 | -149.24973 | 36131 ft | 440 kts | 251° |
| 2026-04-22 17:33 | 24.59604 | -149.30962 | 36144 ft | 440 kts | 251° |
| 2026-04-22 17:34 | 24.56822 | -149.36948 | 36145 ft | 439 kts | 251° |
| 2026-04-22 17:34 | 24.54037 | -149.42931 | 36147 ft | 440 kts | 251° |
| 2026-04-22 17:35 | 24.51250 | -149.48912 | 36143 ft | 440 kts | 251° |
| 2026-04-22 17:35 | 24.48452 | -149.54907 | 36143 ft | 441 kts | 251° |
| 2026-04-22 17:36 | 24.45651 | -149.60901 | 36132 ft | 441 kts | 251° |
| 2026-04-22 17:36 | 24.42865 | -149.66854 | 36128 ft | 441 kts | 250° |
| 2026-04-22 17:37 | 24.40039 | -149.72885 | 36144 ft | 442 kts | 250° |
| 2026-04-22 17:37 | 24.37701 | -149.77871 | 36136 ft | 442 kts | 250° |
| 2026-04-22 17:38 | 24.34885 | -149.83868 | 36143 ft | 443 kts | 250° |
| 2026-04-22 17:38 | 24.31599 | -149.90854 | 36136 ft | 443 kts | 250° |
| 2026-04-22 17:39 | 24.29228 | -149.95889 | 36143 ft | 444 kts | 250° |
| 2026-04-22 17:40 | 24.24977 | -150.04903 | 36131 ft | 444 kts | 250° |
| 2026-04-22 17:40 | 24.22155 | -150.10878 | 36146 ft | 444 kts | 250° |
| 2026-04-22 17:41 | 24.19310 | -150.16894 | 36138 ft | 444 kts | 250° |
| 2026-04-22 17:41 | 24.16466 | -150.22900 | 36141 ft | 444 kts | 250° |
| 2026-04-22 17:42 | 24.13618 | -150.28906 | 36142 ft | 445 kts | 250° |
| 2026-04-22 17:42 | 24.10764 | -150.34918 | 36142 ft | 445 kts | 250° |
| 2026-04-22 17:43 | 24.07900 | -150.40943 | 36137 ft | 445 kts | 250° |
| 2026-04-22 17:43 | 24.05040 | -150.46951 | 36119 ft | 445 kts | 250° |
| 2026-04-22 17:44 | 24.02176 | -150.52960 | 36135 ft | 445 kts | 250° |
| 2026-04-22 17:44 | 23.99311 | -150.58965 | 36141 ft | 445 kts | 250° |
| 2026-04-22 17:45 | 23.96460 | -150.64932 | 36141 ft | 446 kts | 249° |
| 2026-04-22 17:45 | 23.93587 | -150.70939 | 36141 ft | 446 kts | 249° |
| 2026-04-22 17:46 | 23.90712 | -150.76942 | 36136 ft | 446 kts | 249° |
| 2026-04-22 17:46 | 23.87834 | -150.82941 | 36141 ft | 446 kts | 249° |
| 2026-04-22 17:47 | 23.84954 | -150.88940 | 36127 ft | 446 kts | 249° |
| 2026-04-22 17:47 | 23.82072 | -150.94935 | 36137 ft | 446 kts | 249° |
| 2026-04-22 17:48 | 23.79188 | -151.00927 | 36143 ft | 446 kts | 249° |
| 2026-04-22 17:48 | 23.76300 | -151.06920 | 36134 ft | 446 kts | 249° |
| 2026-04-22 17:49 | 23.73406 | -151.12917 | 36139 ft | 446 kts | 249° |
| 2026-04-22 17:49 | 23.70531 | -151.18867 | 36139 ft | 446 kts | 249° |
| 2026-04-22 17:50 | 23.67626 | -151.24873 | 36138 ft | 447 kts | 249° |
| 2026-04-22 17:50 | 23.64721 | -151.30870 | 36135 ft | 447 kts | 249° |
| 2026-04-22 17:51 | 23.61814 | -151.36864 | 36138 ft | 447 kts | 248° |
| 2026-04-22 17:51 | 23.58907 | -151.42852 | 36140 ft | 447 kts | 248° |
| 2026-04-22 17:52 | 23.56008 | -151.48814 | 36139 ft | 448 kts | 248° |
| 2026-04-22 17:52 | 23.53087 | -151.54815 | 36139 ft | 448 kts | 248° |
| 2026-04-22 17:53 | 23.50163 | -151.60816 | 36136 ft | 448 kts | 248° |
| 2026-04-22 17:53 | 23.47234 | -151.66818 | 36130 ft | 449 kts | 248° |
| 2026-04-22 17:54 | 23.44306 | -151.72811 | 36141 ft | 448 kts | 248° |
| 2026-04-22 17:54 | 23.41369 | -151.78814 | 36135 ft | 449 kts | 248° |
| 2026-04-22 17:55 | 23.38430 | -151.84816 | 36137 ft | 449 kts | 248° |
| 2026-04-22 17:55 | 23.35490 | -151.90813 | 36143 ft | 449 kts | 248° |
| 2026-04-22 17:56 | 23.32546 | -151.96810 | 36137 ft | 449 kts | 248° |
| 2026-04-22 17:56 | 23.29616 | -152.02769 | 36140 ft | 449 kts | 248° |
| 2026-04-22 17:57 | 23.26669 | -152.08757 | 36119 ft | 449 kts | 248° |
| 2026-04-22 17:57 | 23.23720 | -152.14741 | 36131 ft | 449 kts | 248° |
| 2026-04-22 17:58 | 23.20770 | -152.20722 | 36140 ft | 449 kts | 248° |
| 2026-04-22 17:58 | 23.17818 | -152.26699 | 36141 ft | 449 kts | 247° |
| 2026-04-22 17:59 | 23.14862 | -152.32676 | 36133 ft | 449 kts | 247° |
| 2026-04-22 17:59 | 23.11907 | -152.38644 | 36138 ft | 449 kts | 247° |
| 2026-04-22 18:00 | 23.09447 | -152.43608 | 36135 ft | 449 kts | 247° |
| 2026-04-22 18:00 | 23.05983 | -152.50589 | 36129 ft | 449 kts | 247° |
| 2026-04-22 18:01 | 23.03015 | -152.56563 | 36135 ft | 449 kts | 246° |
| 2026-04-22 18:01 | 23.00041 | -152.62520 | 36135 ft | 449 kts | 246° |
| 2026-04-22 18:02 | 22.97070 | -152.68438 | 36138 ft | 449 kts | 246° |
| 2026-04-22 18:02 | 22.94079 | -152.74387 | 36134 ft | 449 kts | 246° |
| 2026-04-22 18:03 | 22.91082 | -152.80346 | 36132 ft | 449 kts | 246° |
| 2026-04-22 18:03 | 22.88089 | -152.86293 | 36134 ft | 449 kts | 246° |
| 2026-04-22 18:04 | 22.85095 | -152.92234 | 36128 ft | 449 kts | 246° |
| 2026-04-22 18:04 | 22.82097 | -152.98175 | 36135 ft | 448 kts | 246° |
| 2026-04-22 18:05 | 22.79104 | -153.04101 | 36130 ft | 448 kts | 246° |
| 2026-04-22 18:05 | 22.76108 | -153.10027 | 36125 ft | 448 kts | 246° |
| 2026-04-22 18:06 | 22.73129 | -153.15909 | 36121 ft | 447 kts | 246° |
| 2026-04-22 18:06 | 22.70133 | -153.21820 | 36130 ft | 447 kts | 246° |
| 2026-04-22 18:07 | 22.67140 | -153.27719 | 36130 ft | 447 kts | 246° |
| 2026-04-22 18:07 | 22.64146 | -153.33612 | 36126 ft | 447 kts | 245° |
| 2026-04-22 18:08 | 22.61149 | -153.39502 | 36126 ft | 446 kts | 245° |
| 2026-04-22 18:08 | 22.58152 | -153.45388 | 36129 ft | 446 kts | 245° |
| 2026-04-22 18:09 | 22.55172 | -153.51234 | 36132 ft | 446 kts | 245° |
| 2026-04-22 18:09 | 22.52169 | -153.57118 | 36131 ft | 446 kts | 245° |
| 2026-04-22 18:10 | 22.49165 | -153.62998 | 36134 ft | 447 kts | 245° |
| 2026-04-22 18:10 | 22.46152 | -153.68887 | 36133 ft | 447 kts | 245° |
| 2026-04-22 18:11 | 22.43136 | -153.74776 | 36130 ft | 448 kts | 245° |
| 2026-04-22 18:11 | 22.40136 | -153.80627 | 36125 ft | 448 kts | 245° |
| 2026-04-22 18:12 | 22.37155 | -153.86529 | 36122 ft | 445 kts | 251° |
| 2026-04-22 18:12 | 22.36333 | -153.89702 | 36140 ft | 435 kts | 268° |
| 2026-04-22 18:12 | 22.36238 | -153.91891 | 36137 ft | 432 kts | 274° |
| 2026-04-22 18:13 | 22.36454 | -153.99427 | 36133 ft | 432 kts | 275° |
| 2026-04-22 18:13 | 22.36660 | -154.05926 | 36129 ft | 433 kts | 274° |
| 2026-04-22 18:14 | 22.36822 | -154.12390 | 36132 ft | 433 kts | 274° |
| 2026-04-22 18:14 | 22.36961 | -154.18902 | 36134 ft | 434 kts | 274° |
| 2026-04-22 18:15 | 22.37091 | -154.25424 | 36131 ft | 434 kts | 274° |
| 2026-04-22 18:15 | 22.37219 | -154.31954 | 36130 ft | 435 kts | 274° |
| 2026-04-22 18:16 | 22.37345 | -154.38490 | 36134 ft | 435 kts | 274° |
| 2026-04-22 18:16 | 22.37468 | -154.45017 | 36133 ft | 435 kts | 274° |
| 2026-04-22 18:17 | 22.37589 | -154.51546 | 36133 ft | 435 kts | 274° |
| 2026-04-22 18:17 | 22.37707 | -154.58085 | 36131 ft | 434 kts | 274° |
| 2026-04-22 18:18 | 22.37823 | -154.64602 | 36128 ft | 434 kts | 274° |
| 2026-04-22 18:18 | 22.37936 | -154.71116 | 36130 ft | 433 kts | 274° |
| 2026-04-22 18:19 | 22.38046 | -154.77626 | 36134 ft | 433 kts | 274° |
| 2026-04-22 18:19 | 22.38153 | -154.84123 | 36133 ft | 432 kts | 274° |
| 2026-04-22 18:20 | 22.38258 | -154.90623 | 36133 ft | 432 kts | 274° |
| 2026-04-22 18:20 | 22.38360 | -154.97121 | 36134 ft | 432 kts | 274° |
| 2026-04-22 18:21 | 22.38459 | -155.03572 | 36132 ft | 431 kts | 274° |
| 2026-04-22 18:21 | 22.38556 | -155.10059 | 36135 ft | 431 kts | 274° |
| 2026-04-22 18:22 | 22.38650 | -155.16549 | 36131 ft | 431 kts | 274° |
| 2026-04-22 18:22 | 22.38741 | -155.23026 | 36130 ft | 431 kts | 274° |
| 2026-04-22 18:23 | 22.38830 | -155.29468 | 36134 ft | 431 kts | 274° |
| 2026-04-22 18:23 | 22.38916 | -155.35953 | 36123 ft | 431 kts | 273° |
| 2026-04-22 18:24 | 22.39041 | -155.45674 | 36128 ft | 431 kts | 273° |
| 2026-04-22 18:25 | 22.39160 | -155.55402 | 36131 ft | 432 kts | 273° |
| 2026-04-22 18:25 | 22.39224 | -155.60794 | 36133 ft | 432 kts | 273° |
| 2026-04-22 18:26 | 22.39334 | -155.70536 | 36128 ft | 432 kts | 273° |
| 2026-04-22 18:26 | 22.39404 | -155.77036 | 36129 ft | 433 kts | 273° |
| 2026-04-22 18:27 | 22.39471 | -155.83539 | 36135 ft | 433 kts | 273° |
| 2026-04-22 18:27 | 22.39536 | -155.90050 | 36129 ft | 433 kts | 273° |
| 2026-04-22 18:28 | 22.39598 | -155.96517 | 36131 ft | 433 kts | 273° |
| 2026-04-22 18:28 | 22.39657 | -156.02956 | 36134 ft | 433 kts | 273° |
| 2026-04-22 18:29 | 22.39714 | -156.09466 | 36132 ft | 433 kts | 273° |
| 2026-04-22 18:29 | 22.39769 | -156.15983 | 36034 ft | 435 kts | 273° |
| 2026-04-22 18:30 | 22.39797 | -156.19237 | 35546 ft | 440 kts | 272° |
| 2026-04-22 18:30 | 22.38548 | -156.25557 | 34764 ft | 439 kts | 245° |
| 2026-04-22 18:30 | 22.36892 | -156.28335 | 34331 ft | 442 kts | 233° |
| 2026-04-22 18:31 | 22.34894 | -156.30846 | 33899 ft | 439 kts | 232° |
| 2026-04-22 18:31 | 22.32882 | -156.33344 | 33408 ft | 438 kts | 232° |
| 2026-04-22 18:31 | 22.30945 | -156.35800 | 32989 ft | 434 kts | 233° |
| 2026-04-22 18:31 | 22.29011 | -156.38298 | 32554 ft | 432 kts | 233° |
| 2026-04-22 18:32 | 22.27104 | -156.40785 | 32135 ft | 429 kts | 233° |
| 2026-04-22 18:32 | 22.25205 | -156.43267 | 31715 ft | 427 kts | 233° |
| 2026-04-22 18:32 | 22.23322 | -156.45726 | 31309 ft | 424 kts | 233° |
| 2026-04-22 18:32 | 22.21442 | -156.48177 | 30908 ft | 422 kts | 233° |
| 2026-04-22 18:33 | 22.19570 | -156.50615 | 30488 ft | 421 kts | 232° |
| 2026-04-22 18:33 | 22.17705 | -156.53040 | 30049 ft | 420 kts | 232° |
| 2026-04-22 18:33 | 22.15838 | -156.55464 | 29596 ft | 418 kts | 232° |
| 2026-04-22 18:33 | 22.13985 | -156.57869 | 29153 ft | 415 kts | 232° |
| 2026-04-22 18:34 | 22.12140 | -156.60262 | 28724 ft | 413 kts | 232° |
| 2026-04-22 18:34 | 22.10338 | -156.62597 | 28311 ft | 410 kts | 232° |
| 2026-04-22 18:34 | 22.08515 | -156.64959 | 27895 ft | 407 kts | 232° |
| 2026-04-22 18:34 | 22.06709 | -156.67299 | 27485 ft | 405 kts | 232° |
| 2026-04-22 18:35 | 22.04916 | -156.69621 | 27078 ft | 402 kts | 232° |
| 2026-04-22 18:35 | 22.03124 | -156.71940 | 26681 ft | 400 kts | 232° |
| 2026-04-22 18:35 | 22.01345 | -156.74242 | 26281 ft | 398 kts | 232° |
| 2026-04-22 18:35 | 21.99575 | -156.76530 | 25872 ft | 397 kts | 232° |
| 2026-04-22 18:36 | 21.97813 | -156.78808 | 25475 ft | 395 kts | 232° |
| 2026-04-22 18:36 | 21.96052 | -156.81083 | 25062 ft | 394 kts | 232° |
| 2026-04-22 18:36 | 21.94299 | -156.83348 | 24654 ft | 393 kts | 232° |
| 2026-04-22 18:36 | 21.92550 | -156.85606 | 24259 ft | 392 kts | 232° |
| 2026-04-22 18:37 | 21.90804 | -156.87858 | 23840 ft | 391 kts | 232° |
| 2026-04-22 18:37 | 21.89061 | -156.90108 | 23392 ft | 390 kts | 232° |
| 2026-04-22 18:37 | 21.87348 | -156.92316 | 22965 ft | 388 kts | 232° |
| 2026-04-22 18:37 | 21.85599 | -156.94570 | 22544 ft | 385 kts | 232° |
| 2026-04-22 18:38 | 21.83885 | -156.96777 | 22141 ft | 383 kts | 232° |
| 2026-04-22 18:38 | 21.82178 | -156.98978 | 21692 ft | 381 kts | 232° |
| 2026-04-22 18:38 | 21.80521 | -157.01114 | 21288 ft | 372 kts | 232° |
| 2026-04-22 18:39 | 21.77276 | -157.05293 | 20529 ft | 355 kts | 233° |
| 2026-04-22 18:39 | 21.75705 | -157.07315 | 20165 ft | 348 kts | 233° |
| 2026-04-22 18:39 | 21.74171 | -157.09291 | 19813 ft | 341 kts | 233° |
| 2026-04-22 18:39 | 21.72722 | -157.11156 | 19480 ft | 336 kts | 233° |
| 2026-04-22 18:40 | 21.71245 | -157.13058 | 19158 ft | 336 kts | 233° |
| 2026-04-22 18:40 | 21.69715 | -157.15029 | 18795 ft | 343 kts | 233° |
| 2026-04-22 18:40 | 21.68179 | -157.17009 | 18427 ft | 355 kts | 233° |
| 2026-04-22 18:40 | 21.66592 | -157.19052 | 18009 ft | 357 kts | 233° |
| 2026-04-22 18:41 | 21.64992 | -157.21109 | 17495 ft | 359 kts | 232° |
| 2026-04-22 18:41 | 21.63388 | -157.23168 | 17114 ft | 358 kts | 232° |
| 2026-04-22 18:41 | 21.61791 | -157.25217 | 16730 ft | 357 kts | 232° |
| 2026-04-22 18:41 | 21.60196 | -157.27263 | 16358 ft | 357 kts | 232° |
| 2026-04-22 18:42 | 21.58604 | -157.29305 | 15984 ft | 356 kts | 232° |
| 2026-04-22 18:42 | 21.57017 | -157.31340 | 15611 ft | 355 kts | 232° |
| 2026-04-22 18:42 | 21.55435 | -157.33367 | 15241 ft | 354 kts | 232° |
| 2026-04-22 18:42 | 21.53845 | -157.35405 | 14854 ft | 355 kts | 232° |
| 2026-04-22 18:43 | 21.52266 | -157.37428 | 14476 ft | 355 kts | 231° |
| 2026-04-22 18:43 | 21.50679 | -157.39460 | 14113 ft | 354 kts | 231° |
| 2026-04-22 18:43 | 21.49096 | -157.41487 | 13701 ft | 355 kts | 231° |
| 2026-04-22 18:43 | 21.47510 | -157.43516 | 13323 ft | 353 kts | 231° |
| 2026-04-22 18:44 | 21.45933 | -157.45533 | 12955 ft | 351 kts | 231° |
| 2026-04-22 18:44 | 21.44366 | -157.47537 | 12592 ft | 350 kts | 231° |
| 2026-04-22 18:44 | 21.42805 | -157.49532 | 12228 ft | 347 kts | 231° |
| 2026-04-22 18:44 | 21.41271 | -157.51491 | 11875 ft | 337 kts | 231° |
| 2026-04-22 18:45 | 21.39832 | -157.53421 | 11601 ft | 325 kts | 234° |
| 2026-04-22 18:45 | 21.38493 | -157.55289 | 11335 ft | 316 kts | 234° |
| 2026-04-22 18:45 | 21.37160 | -157.57167 | 11089 ft | 309 kts | 234° |
| 2026-04-22 18:45 | 21.35888 | -157.58961 | 10846 ft | 305 kts | 234° |
| 2026-04-22 18:46 | 21.34616 | -157.60753 | 10609 ft | 300 kts | 234° |
| 2026-04-22 18:46 | 21.33370 | -157.62514 | 10480 ft | 285 kts | 233° |
| 2026-04-22 18:46 | 21.32205 | -157.64148 | 10378 ft | 266 kts | 234° |
| 2026-04-22 18:46 | 21.31113 | -157.65668 | 10154 ft | 252 kts | 235° |
| 2026-04-22 18:47 | 21.30059 | -157.67141 | 9709 ft | 247 kts | 234° |
| 2026-04-22 18:47 | 21.29032 | -157.68575 | 9210 ft | 245 kts | 235° |
| 2026-04-22 18:47 | 21.27997 | -157.70012 | 8721 ft | 243 kts | 234° |
| 2026-04-22 18:47 | 21.26968 | -157.71447 | 8231 ft | 242 kts | 234° |
| 2026-04-22 18:48 | 21.25955 | -157.72874 | 7768 ft | 239 kts | 234° |
| 2026-04-22 18:48 | 21.24947 | -157.74292 | 7219 ft | 239 kts | 234° |
| 2026-04-22 18:48 | 21.23969 | -157.75663 | 6690 ft | 234 kts | 234° |
| 2026-04-22 18:48 | 21.22998 | -157.77034 | 6118 ft | 227 kts | 234° |
| 2026-04-22 18:49 | 21.22071 | -157.78353 | 5551 ft | 222 kts | 234° |
| 2026-04-22 18:49 | 21.21154 | -157.79668 | 4992 ft | 218 kts | 234° |
| 2026-04-22 18:49 | 21.20276 | -157.80934 | 4432 ft | 216 kts | 234° |
| 2026-04-22 18:49 | 21.19404 | -157.82210 | 3872 ft | 213 kts | 234° |
| 2026-04-22 18:50 | 21.18555 | -157.83489 | 3366 ft | 208 kts | 233° |
| 2026-04-22 18:50 | 21.17717 | -157.84773 | 2796 ft | 211 kts | 234° |
| 2026-04-22 18:50 | 21.16890 | -157.86046 | 2439 ft | 204 kts | 237° |
| 2026-04-22 18:50 | 21.16424 | -157.87476 | 2109 ft | 206 kts | 262° |
| 2026-04-22 18:51 | 21.16157 | -157.89029 | 2052 ft | 213 kts | 259° |
| 2026-04-22 18:51 | 21.15865 | -157.90565 | 2000 ft | 208 kts | 260° |
| 2026-04-22 18:51 | 21.15569 | -157.92082 | 1975 ft | 211 kts | 259° |
| 2026-04-22 18:51 | 21.15280 | -157.93616 | 1978 ft | 208 kts | 259° |
| 2026-04-22 18:52 | 21.14996 | -157.95134 | 1993 ft | 210 kts | 259° |
| 2026-04-22 18:52 | 21.14706 | -157.96669 | 1995 ft | 210 kts | 259° |
| 2026-04-22 18:52 | 21.14455 | -157.98204 | 1989 ft | 209 kts | 270° |
| 2026-04-22 18:52 | 21.14749 | -157.99702 | 2030 ft | 205 kts | 291° |
| 2026-04-22 18:53 | 21.15186 | -158.01142 | 2013 ft | 207 kts | 289° |
| 2026-04-22 18:53 | 21.15630 | -158.02630 | 2008 ft | 207 kts | 290° |
| 2026-04-22 18:53 | 21.16057 | -158.04085 | 2001 ft | 207 kts | 289° |
| 2026-04-22 18:53 | 21.16666 | -158.05460 | 1988 ft | 203 kts | 315° |
| 2026-04-22 18:54 | 21.17840 | -158.06194 | 2005 ft | 196 kts | 353° |
| 2026-04-22 18:54 | 21.19159 | -158.06032 | 2029 ft | 191 kts | 21° |
| 2026-04-22 18:54 | 21.20414 | -158.05550 | 1994 ft | 187 kts | 26° |
| 2026-04-22 18:54 | 21.21516 | -158.04952 | 1988 ft | 170 kts | 29° |
| 2026-04-22 18:55 | 21.22529 | -158.04392 | 1995 ft | 160 kts | 29° |
| 2026-04-22 18:55 | 21.23475 | -158.03793 | 1992 ft | 158 kts | 42° |
| 2026-04-22 18:55 | 21.24215 | -158.02911 | 1987 ft | 163 kts | 53° |
| 2026-04-22 18:55 | 21.24907 | -158.01932 | 1823 ft | 163 kts | 53° |
| 2026-04-22 18:56 | 21.25567 | -158.00987 | 1708 ft | 156 kts | 53° |
| 2026-04-22 18:56 | 21.26198 | -158.00086 | 1603 ft | 152 kts | 53° |
| 2026-04-22 18:56 | 21.26816 | -157.99205 | 1508 ft | 144 kts | 53° |
| 2026-04-22 18:56 | 21.27456 | -157.98295 | 1338 ft | 160 kts | 52° |
| 2026-04-22 18:57 | 21.28129 | -157.97341 | 1131 ft | 161 kts | 52° |
| 2026-04-22 18:57 | 21.28803 | -157.96387 | 936 ft | 159 kts | 52° |
| 2026-04-22 18:57 | 21.29471 | -157.95440 | 709 ft | 159 kts | 52° |
| 2026-04-22 18:57 | 21.30136 | -157.94497 | 491 ft | 158 kts | 52° |
| 2026-04-22 18:58 | 21.30805 | -157.93558 | 279 ft | 159 kts | 53° |
| 2026-04-22 18:58 | 21.31472 | -157.92608 | 49 ft | 160 kts | 53° |
| 2026-04-22 18:58 | 21.32085 | -157.91736 | 9 ft | 110 kts | 53° |
| 2026-04-22 18:58 | 21.32314 | -157.91440 | 5 ft | 36 kts | 38° |
| 2026-04-22 18:59 | 21.32462 | -157.91354 | 7 ft | 18 kts | 14° |
| 2026-04-22 18:59 | 21.32574 | -157.91330 | 8 ft | 15 kts | 13° |
| 2026-04-22 18:59 | 21.32662 | -157.91321 | 9 ft | 12 kts | 339° |
| 2026-04-22 18:59 | 21.32690 | -157.91401 | 9 ft | 12 kts | 273° |
| 2026-04-22 19:00 | 21.32694 | -157.91488 | 10 ft | 12 kts | 272° |
| 2026-04-22 19:00 | 21.32694 | -157.91573 | 10 ft | 11 kts | 268° |
| 2026-04-22 19:00 | 21.32691 | -157.91656 | 10 ft | 11 kts | 269° |
| 2026-04-22 19:00 | 21.32691 | -157.91730 | 10 ft | 10 kts | 271° |
| 2026-04-22 19:01 | 21.32691 | -157.91801 | 11 ft | 9 kts | 270° |
| 2026-04-22 19:01 | 21.32692 | -157.91871 | 11 ft | 9 kts | 270° |
| 2026-04-22 19:01 | 21.32692 | -157.91934 | 18 ft | 9 kts | 270° |
| 2026-04-22 19:01 | 21.32692 | -157.91997 | 12 ft | 8 kts | 270° |
| 2026-04-22 19:02 | 21.32692 | -157.92059 | 12 ft | 9 kts | 270° |
| 2026-04-22 19:02 | 21.32691 | -157.92131 | 13 ft | 11 kts | 270° |
| 2026-04-22 19:02 | 21.32691 | -157.92206 | 13 ft | 11 kts | 272° |
| 2026-04-22 19:02 | 21.32743 | -157.92249 | 12 ft | 11 kts | 11° |
| 2026-04-22 19:03 | 21.32804 | -157.92203 | 12 ft | 11 kts | 37° |
| 2026-04-22 19:03 | 21.32875 | -157.92170 | 11 ft | 12 kts | 8° |
| 2026-04-22 19:03 | 21.32963 | -157.92153 | 9 ft | 14 kts | 10° |
| 2026-04-22 19:03 | 21.33050 | -157.92138 | 10 ft | 9 kts | 9° |
| 2026-04-22 19:04 | 21.33065 | -157.92085 | 14 ft | 8 kts | 102° |
| 2026-04-22 19:04 | 21.33061 | -157.92059 | 12 ft | 2 kts | 101° |
| 2026-04-22 19:04 | 21.33060 | -157.92058 | 12 ft | 0 kts | 101° |